Antonito, CO (81120)

7:08 PM MDT on September 02, 2015 (GMT -0600)
Fox Creek | | Change Station
CLOSE
Current Station
Personal Weather Station
Location: Antonito, CO
Elevation: 8451 ft
Nearby Weather Stations

Elev 8451 ft 37.07 °N, 106.22 °W | Updated 2 minutes ago

Mostly Cloudy
Mostly Cloudy
66.2 °F
Feels Like 66.2 °F
N
4.7
Wind Variable Wind from NE

Today
High -- | Low -- °F
--% Chance of Precip.
Yesterday
High -- | Low -- °F
Precip. -- in
6:36 AM 7:32 PM
Waning Gibbous, 75% visible
Pressure 30.26 in
Visibility 10.0 miles
Clouds Mostly Cloudy 9000 ft
Mostly Cloudy 11000 ft
Dew Point 42 °F
Humidity 42%
Rainfall 0.00 in
Snow Depth Not available.
UV 0 out of 12
Pollen 10.80 out of 12
Air Quality Not available.
Flu Activity Not available.
SPECI KALS 030100Z AUTO 05011G14KT 10SM BKN090 BKN110 17/09 A3026 RMK AO2 LTG DSNT SW TSE0054 T01720094
Pressure 30.26 in
Visibility 10.0 miles
Clouds Mostly Cloudy 9000 ft
Mostly Cloudy 11000 ft
Dew Point 42 °F
Humidity 42%
Rainfall 0.00 in
Snow Depth Not available.
UV 0 out of 12
Pollen 10.80 out of 12
Air Quality Not available.
Flu Activity Not available.
SPECI KALS 030100Z AUTO 05011G14KT 10SM BKN090 BKN110 17/09 A3026 RMK AO2 LTG DSNT SW TSE0054 T01720094

10-Day Weather Forecast

×

Almanac

Astronomy

Sep. 02, 2015 Rise Set
Actual Time
Civil Twilight
Nautical Twilight
Astronomical Twilight
Moon
Length of Visible Light
Length of Day
Tomorrow will be .
, % of the Moon is Illuminated

Today's Extremes

State Highs State Lows

Community

WunderPhotos

Upload Photos

1,851,860 photos uploaded!

WunderBlogs® & News

Nearby

Air Quality

  Air Quality AQ Index Pollutant
Not available.

Snow Depth

Station Depth Elevation

Earthquake Activity

City Distance Mag. Time & Date
Minimum magnitude displayed is 2.5.

Coastal Water Temperatures

Place Temperature

Stations

Nearby Weather Stations

Station Location Temp. Windchill Dew Point Humidity Wind Precip. Elev Updated Type